Lehmann Sound — V2EM3 — position and weather

sailwx.info

Track history (hours):
 
Tides and Currents Weather Stations Pressure Air Temp Water Temp Dewpoint Dewpoint Depression Visibility Wind Speed Wind Dir Waves Ship Positions

Lehmann Sound

Last reported at 2017-Apr-26 04:19 UTC. Time now 2017-Apr-26 05:52 UTC.
Position N 59°22' E 017°49'.

Length 90 m; draft 6 m.

Type: Cargo ship. MMSI: 305476000.

Date/timePositionNaut miles runAvg speedWind from/ knotsBaromVisibWave heightAir tempDewpointWater temp
2017-Apr-26 04:19N 59°22' E 017°49'0 1.2
2017-Apr-26 04:00N 59°21' E 017°50'4 8.1
2017-Apr-26 03:30N 59°19' E 017°56'4 8.1
2017-Apr-26 03:00N 59°16' E 017°51'5 9.1
2017-Apr-26 02:25N 59°16' E 017°41'3 7.4
2017-Apr-26 02:00N 59°16' E 017°35'  
2017-Apr-22 03:41N 54°42' E 015°12'2 9.4
2017-Apr-22 03:29N 54°41' E 015°08'4 8.9
2017-Apr-22 03:00N 54°40' E 015°01'5 9.2
2017-Apr-22 02:30N 54°39' E 014°54'17 9.3
2017-Apr-22 00:41N 54°36' E 014°25'210.0
2017-Apr-22 00:30N 54°36' E 014°22'510.0
2017-Apr-21 23:58N 54°37' E 014°13'510.0
2017-Apr-21 23:31N 54°38' E 014°05'610.2
2017-Apr-21 22:53N 54°41' E 013°55'3710.2
2017-Apr-21 19:17N 54°41' E 012°52'310.6
2017-Apr-21 19:00N 54°41' E 012°47'510.6
2017-Apr-21 18:30N 54°39' E 012°38'26 9.6
2017-Apr-21 15:46N 54°24' E 012°02'310.2
2017-Apr-21 15:30N 54°24' E 011°57'5 9.9
2017-Apr-21 15:00N 54°24' E 011°48'5 8.3
2017-Apr-21 14:27N 54°25' E 011°41'8 8.6
2017-Apr-21 13:31N 54°29' E 011°29'4 8.6
2017-Apr-21 13:00N 54°31' E 011°22'4 8.8
2017-Apr-21 12:30N 54°33' E 011°15'4 8.3
2017-Apr-21 12:00N 54°34' E 011°09'4 8.9
2017-Apr-21 11:31N 54°34' E 011°01'4 9.0
2017-Apr-21 11:01N 54°34' E 010°53'4 8.7
2017-Apr-21 10:31N 54°33' E 010°46'5 8.6
2017-Apr-21 09:58N 54°32' E 010°38'52 6.3
2017-Apr-21 01:45N 54°08' E 009°20'2 8.3
2017-Apr-21 01:30N 54°06' E 009°20'4 8.3
2017-Apr-21 01:00N 54°02' E 009°18'4 8.2
2017-Apr-21 00:30N 53°58' E 009°15'2 3.4
2017-Apr-21 00:00N 53°57' E 009°14'2 3.4
2017-Apr-20 23:30N 53°55' E 009°12'2 4.8
2017-Apr-20 23:00N 53°54' E 009°09'2 3.6
2017-Apr-20 22:30N 53°53' E 009°06'2 4.5
2017-Apr-20 22:00N 53°52' E 009°02'4 7.5
2017-Apr-20 21:30N 53°51' E 008°57'4 8.3
2017-Apr-20 21:01N 53°50' E 008°50'4 8.4
2017-Apr-20 20:30N 53°52' E 008°43'4 9.0
2017-Apr-20 20:00N 53°56' E 008°39'5 8.8
2017-Apr-20 19:27N 53°58' E 008°32'4 9.3
2017-Apr-20 18:58N 53°59' E 008°24'163 8.7
2017-Apr-20 00:14N 52°51' E 004°16'2 9.8
2017-Apr-20 00:00N 52°49' E 004°14'510.2
2017-Apr-19 23:30N 52°45' E 004°09'510.0
2017-Apr-19 23:00N 52°42' E 004°03'510.5
2017-Apr-19 22:30N 52°38' E 003°57'51 9.5
2017-Apr-19 17:06N 51°52' E 003°21'2 8.9
2017-Apr-19 16:49N 51°50' E 003°19'3 8.9
2017-Apr-19 16:28N 51°47' E 003°16'4 8.2
2017-Apr-19 16:00N 51°43' E 003°17'4 6.7
2017-Apr-19 15:26N 51°40' E 003°19'4 8.2
2017-Apr-19 14:59N 51°37' E 003°22'4 7.9
2017-Apr-19 14:30N 51°33' E 003°25'7 7.3
2017-Apr-19 13:31N 51°27' E 003°32'4 6.9
2017-Apr-19 12:57N 51°26' E 003°38'4 8.4
2017-Apr-19 12:29N 51°24' E 003°43'510.3
2017-Apr-19 12:00N 51°21' E 003°49'1 1.4
2017-Apr-19 11:19N 51°20' E 003°49'1 2.1
2017-Apr-19 11:00N 51°19' E 003°49'0 0.5
2017-Apr-19 10:30N 51°19' E 003°50'1 1.9
2017-Apr-19 10:00N 51°18' E 003°50'3 6.2
2017-Apr-19 09:29N 51°15' E 003°49'4 7.8
2017-Apr-19 09:00N 51°11' E 003°48'4 8.6
2017-Apr-19 08:31N 51°07' E 003°45'2 3.7
2017-Apr-19 07:59N 51°05' E 003°44'0 0.0
2017-Apr-19 07:29N 51°05' E 003°44'0 0.0
2017-Apr-19 06:59N 51°05' E 003°44'0 0.0
2017-Apr-19 06:30N 51°05' E 003°44'0 0.0
2017-Apr-19 05:53N 51°05' E 003°44'0 0.0
2017-Apr-19 05:26N 51°05' E 003°44'0 0.0
2017-Apr-19 04:56N 51°05' E 003°44'0 0.0
2017-Apr-19 04:26N 51°05' E 003°44'0 0.0
2017-Apr-19 03:44N 51°05' E 003°44'0 0.0
2017-Apr-19 03:26N 51°05' E 003°44'0 0.0
2017-Apr-19 02:56N 51°05' E 003°44'0 0.0
2017-Apr-19 02:26N 51°05' E 003°44'0 0.0
2017-Apr-19 01:47N 51°05' E 003°44'0 0.0
2017-Apr-19 01:29N 51°05' E 003°44'0 0.0
2017-Apr-19 00:59N 51°05' E 003°44'0 0.0
2017-Apr-19 00:26N 51°05' E 003°44'0 0.0
2017-Apr-18 23:53N 51°05' E 003°44'0 0.0
2017-Apr-18 23:29N 51°05' E 003°44'0 0.0
2017-Apr-18 22:50N 51°05' E 003°44'0 0.0
2017-Apr-18 22:17N 51°05' E 003°44'0 0.0
2017-Apr-18 21:53N 51°05' E 003°44'0 0.0
2017-Apr-18 21:23N 51°05' E 003°44'0 0.0
2017-Apr-18 20:56N 51°05' E 003°44'0 0.0
2017-Apr-18 20:27N 51°05' E 003°44'0 0.0
2017-Apr-18 19:53N 51°05' E 003°44'0 0.0
2017-Apr-18 19:26N 51°05' E 003°44'0 0.0
2017-Apr-18 18:56N 51°05' E 003°44'0 0.0
2017-Apr-18 18:29N 51°05' E 003°44'0 0.0
2017-Apr-18 17:56N 51°05' E 003°44'0 0.0
2017-Apr-18 17:26N 51°05' E 003°44'0 0.0
2017-Apr-18 16:53N 51°05' E 003°44'0 0.0
2017-Apr-18 16:29N 51°05' E 003°44'0 0.0
2017-Apr-18 15:59N 51°05' E 003°44'0 0.0
2017-Apr-18 15:23N 51°05' E 003°44'0 0.0
2017-Apr-18 14:59N 51°05' E 003°44'0 0.0
2017-Apr-18 14:23N 51°05' E 003°44'0 0.0
2017-Apr-18 13:23N 51°05' E 003°44'0 0.0
2017-Apr-18 12:56N 51°05' E 003°44'0 0.0
2017-Apr-18 12:14N 51°05' E 003°44'0 0.0
2017-Apr-18 11:56N 51°05' E 003°44'0 0.0
2017-Apr-18 11:20N 51°05' E 003°44'0 0.0
2017-Apr-18 10:59N 51°05' E 003°44'0 0.0
2017-Apr-18 10:29N 51°05' E 003°44'0 0.0
2017-Apr-18 09:56N 51°05' E 003°44'0 0.0
2017-Apr-18 09:29N 51°05' E 003°44'0 0.0
2017-Apr-18 08:53N 51°05' E 003°44'0 0.0
2017-Apr-18 08:29N 51°05' E 003°44'0 0.0
2017-Apr-18 07:59N 51°05' E 003°44'0 0.0
2017-Apr-18 07:23N 51°05' E 003°44'0 0.0
2017-Apr-18 06:59N 51°05' E 003°44'0 0.0
2017-Apr-18 06:22N 51°05' E 003°44'0 0.0
2017-Apr-18 05:58N 51°05' E 003°44'0 0.0
2017-Apr-18 05:22N 51°05' E 003°44'0 0.0
2017-Apr-18 04:58N 51°05' E 003°44'0 0.0
2017-Apr-18 04:22N 51°05' E 003°44'0 0.0
2017-Apr-18 03:58N 51°05' E 003°44'0 0.0
2017-Apr-18 03:22N 51°05' E 003°44'0 0.0
2017-Apr-18 02:58N 51°05' E 003°44'0 0.0
2017-Apr-18 02:31N 51°05' E 003°44'0 0.0
2017-Apr-18 01:55N 51°05' E 003°44'0 0.0
2017-Apr-18 01:24N 51°05' E 003°44'0 0.0
2017-Apr-18 00:55N 51°05' E 003°44'0 0.0
2017-Apr-18 00:25N 51°05' E 003°44'0 0.0
2017-Apr-18 00:00N 51°05' E 003°44'0 0.0
2017-Apr-17 23:24N 51°05' E 003°44'0 0.0
2017-Apr-17 23:00N 51°05' E 003°44'0 0.0
2017-Apr-17 22:24N 51°05' E 003°44'0 0.0
2017-Apr-17 22:00N 51°05' E 003°44'0 0.0
2017-Apr-17 21:30N 51°05' E 003°44'0 0.0
2017-Apr-17 20:54N 51°05' E 003°44'0 0.0
2017-Apr-17 20:30N 51°05' E 003°44'0 0.0
2017-Apr-17 19:57N 51°05' E 003°44'0 0.0
2017-Apr-17 19:22N 51°05' E 003°44'0 0.0
2017-Apr-17 18:57N 51°05' E 003°44'0 0.0
2017-Apr-17 18:30N 51°05' E 003°44'0 0.0
2017-Apr-17 18:00N 51°05' E 003°44'0 0.0
2017-Apr-17 17:27N 51°05' E 003°44'1 1.3
2017-Apr-17 17:01N 51°06' E 003°44'4 7.8
2017-Apr-17 16:31N 51°09' E 003°47'4 8.2
2017-Apr-17 16:00N 51°13' E 003°48'4 8.2
2017-Apr-17 15:31N 51°17' E 003°50'3 5.6
2017-Apr-17 15:00N 51°20' E 003°49'3 3.1
2017-Apr-17 14:00N 51°22' E 003°45'4 7.6
2017-Apr-17 13:30N 51°25' E 003°41'4 7.9
2017-Apr-17 13:00N 51°26' E 003°35'4 7.1
2017-Apr-17 12:30N 51°28' E 003°31'4 8.9
2017-Apr-17 12:00N 51°31' E 003°25'510.4
2017-Apr-17 11:29N 51°36' E 003°22'5 9.8
2017-Apr-17 11:00N 51°40' E 003°17'5 8.9
2017-Apr-17 10:29N 51°44' E 003°14'4 3.3
2017-Apr-17 09:08N 51°48' E 003°09'0 2.7
2017-Apr-17 08:59N 51°47' E 003°10'2 3.6
2017-Apr-17 08:29N 51°47' E 003°13'2 2.7
2017-Apr-17 07:54N 51°49' E 003°14'45 7.0
2017-Apr-17 01:30N 52°33' E 003°29'4 8.8
2017-Apr-17 00:59N 52°37' E 003°31'4 9.2
2017-Apr-17 00:30N 52°40' E 003°36'5 9.3
2017-Apr-17 00:00N 52°44' E 003°41'5 9.1
2017-Apr-16 23:29N 52°47' E 003°47'4 8.6
2017-Apr-16 22:59N 52°51' E 003°51'4 8.3
2017-Apr-16 22:30N 52°54' E 003°55'4 8.1
2017-Apr-16 21:59N 52°57' E 004°00'4 7.7
2017-Apr-16 21:30N 52°59' E 004°05'4 7.4
2017-Apr-16 21:00N 53°01' E 004°09'4 7.0
2017-Apr-16 20:30N 53°04' E 004°14'3 6.7
2017-Apr-16 19:59N 53°06' E 004°18'3 6.4
2017-Apr-16 19:30N 53°08' E 004°22'3 6.2
2017-Apr-16 18:59N 53°10' E 004°26'3 6.6
2017-Apr-16 18:30N 53°13' E 004°28'4 6.7
2017-Apr-16 17:53N 53°17' E 004°32'3 7.7
2017-Apr-16 17:29N 53°20' E 004°33'  
Track history (hours):
 
Tides and Currents Weather Stations Pressure Air Temp Water Temp Dewpoint Dewpoint Depression Visibility Wind Speed Wind Dir Waves Ship Positions

Lehmann Sound

Last reported at 2017-Apr-26 04:19 UTC. Time now 2017-Apr-26 05:52 UTC.
Position N 59°22' E 017°49'.

Length 90 m; draft 6 m.

Type: Cargo ship. MMSI: 305476000.

Date/timePositionNaut miles runAvg speedWind from/ knotsBaromVisibWave heightAir tempDewpointWater temp
2017-Apr-26 04:19N 59°22' E 017°49'0 1.2
2017-Apr-26 04:00N 59°21' E 017°50'4 8.1
2017-Apr-26 03:30N 59°19' E 017°56'4 8.1
2017-Apr-26 03:00N 59°16' E 017°51'5 9.1
2017-Apr-26 02:25N 59°16' E 017°41'3 7.4
2017-Apr-26 02:00N 59°16' E 017°35'  
2017-Apr-22 03:41N 54°42' E 015°12'2 9.4
2017-Apr-22 03:29N 54°41' E 015°08'4 8.9
2017-Apr-22 03:00N 54°40' E 015°01'5 9.2
2017-Apr-22 02:30N 54°39' E 014°54'17 9.3
2017-Apr-22 00:41N 54°36' E 014°25'210.0
2017-Apr-22 00:30N 54°36' E 014°22'510.0
2017-Apr-21 23:58N 54°37' E 014°13'510.0
2017-Apr-21 23:31N 54°38' E 014°05'610.2
2017-Apr-21 22:53N 54°41' E 013°55'3710.2
2017-Apr-21 19:17N 54°41' E 012°52'310.6
2017-Apr-21 19:00N 54°41' E 012°47'510.6
2017-Apr-21 18:30N 54°39' E 012°38'26 9.6
2017-Apr-21 15:46N 54°24' E 012°02'310.2
2017-Apr-21 15:30N 54°24' E 011°57'5 9.9
2017-Apr-21 15:00N 54°24' E 011°48'5 8.3
2017-Apr-21 14:27N 54°25' E 011°41'8 8.6
2017-Apr-21 13:31N 54°29' E 011°29'4 8.6
2017-Apr-21 13:00N 54°31' E 011°22'4 8.8
2017-Apr-21 12:30N 54°33' E 011°15'4 8.3
2017-Apr-21 12:00N 54°34' E 011°09'4 8.9
2017-Apr-21 11:31N 54°34' E 011°01'4 9.0
2017-Apr-21 11:01N 54°34' E 010°53'4 8.7
2017-Apr-21 10:31N 54°33' E 010°46'5 8.6
2017-Apr-21 09:58N 54°32' E 010°38'52 6.3
2017-Apr-21 01:45N 54°08' E 009°20'2 8.3
2017-Apr-21 01:30N 54°06' E 009°20'4 8.3
2017-Apr-21 01:00N 54°02' E 009°18'4 8.2
2017-Apr-21 00:30N 53°58' E 009°15'2 3.4
2017-Apr-21 00:00N 53°57' E 009°14'2 3.4
2017-Apr-20 23:30N 53°55' E 009°12'2 4.8
2017-Apr-20 23:00N 53°54' E 009°09'2 3.6
2017-Apr-20 22:30N 53°53' E 009°06'2 4.5
2017-Apr-20 22:00N 53°52' E 009°02'4 7.5
2017-Apr-20 21:30N 53°51' E 008°57'4 8.3
2017-Apr-20 21:01N 53°50' E 008°50'4 8.4
2017-Apr-20 20:30N 53°52' E 008°43'4 9.0
2017-Apr-20 20:00N 53°56' E 008°39'5 8.8
2017-Apr-20 19:27N 53°58' E 008°32'4 9.3
2017-Apr-20 18:58N 53°59' E 008°24'163 8.7
2017-Apr-20 00:14N 52°51' E 004°16'2 9.8
2017-Apr-20 00:00N 52°49' E 004°14'510.2
2017-Apr-19 23:30N 52°45' E 004°09'510.0
2017-Apr-19 23:00N 52°42' E 004°03'510.5
2017-Apr-19 22:30N 52°38' E 003°57'51 9.5
2017-Apr-19 17:06N 51°52' E 003°21'2 8.9
2017-Apr-19 16:49N 51°50' E 003°19'3 8.9
2017-Apr-19 16:28N 51°47' E 003°16'4 8.2
2017-Apr-19 16:00N 51°43' E 003°17'4 6.7
2017-Apr-19 15:26N 51°40' E 003°19'4 8.2
2017-Apr-19 14:59N 51°37' E 003°22'4 7.9
2017-Apr-19 14:30N 51°33' E 003°25'7 7.3
2017-Apr-19 13:31N 51°27' E 003°32'4 6.9
2017-Apr-19 12:57N 51°26' E 003°38'4 8.4
2017-Apr-19 12:29N 51°24' E 003°43'510.3
2017-Apr-19 12:00N 51°21' E 003°49'1 1.4
2017-Apr-19 11:19N 51°20' E 003°49'1 2.1
2017-Apr-19 11:00N 51°19' E 003°49'0 0.5
2017-Apr-19 10:30N 51°19' E 003°50'1 1.9
2017-Apr-19 10:00N 51°18' E 003°50'3 6.2
2017-Apr-19 09:29N 51°15' E 003°49'4 7.8
2017-Apr-19 09:00N 51°11' E 003°48'4 8.6
2017-Apr-19 08:31N 51°07' E 003°45'2 3.7
2017-Apr-19 07:59N 51°05' E 003°44'0 0.0
2017-Apr-19 07:29N 51°05' E 003°44'0 0.0
2017-Apr-19 06:59N 51°05' E 003°44'0 0.0
2017-Apr-19 06:30N 51°05' E 003°44'0 0.0
2017-Apr-19 05:53N 51°05' E 003°44'0 0.0
2017-Apr-19 05:26N 51°05' E 003°44'0 0.0
2017-Apr-19 04:56N 51°05' E 003°44'0 0.0
2017-Apr-19 04:26N 51°05' E 003°44'0 0.0
2017-Apr-19 03:44N 51°05' E 003°44'0 0.0
2017-Apr-19 03:26N 51°05' E 003°44'0 0.0
2017-Apr-19 02:56N 51°05' E 003°44'0 0.0
2017-Apr-19 02:26N 51°05' E 003°44'0 0.0
2017-Apr-19 01:47N 51°05' E 003°44'0 0.0
2017-Apr-19 01:29N 51°05' E 003°44'0 0.0
2017-Apr-19 00:59N 51°05' E 003°44'0 0.0
2017-Apr-19 00:26N 51°05' E 003°44'0 0.0
2017-Apr-18 23:53N 51°05' E 003°44'0 0.0
2017-Apr-18 23:29N 51°05' E 003°44'0 0.0
2017-Apr-18 22:50N 51°05' E 003°44'0 0.0
2017-Apr-18 22:17N 51°05' E 003°44'0 0.0
2017-Apr-18 21:53N 51°05' E 003°44'0 0.0
2017-Apr-18 21:23N 51°05' E 003°44'0 0.0
2017-Apr-18 20:56N 51°05' E 003°44'0 0.0
2017-Apr-18 20:27N 51°05' E 003°44'0 0.0
2017-Apr-18 19:53N 51°05' E 003°44'0 0.0
2017-Apr-18 19:26N 51°05' E 003°44'0 0.0
2017-Apr-18 18:56N 51°05' E 003°44'0 0.0
2017-Apr-18 18:29N 51°05' E 003°44'0 0.0
2017-Apr-18 17:56N 51°05' E 003°44'0 0.0
2017-Apr-18 17:26N 51°05' E 003°44'0 0.0
2017-Apr-18 16:53N 51°05' E 003°44'0 0.0
2017-Apr-18 16:29N 51°05' E 003°44'0 0.0
2017-Apr-18 15:59N 51°05' E 003°44'0 0.0
2017-Apr-18 15:23N 51°05' E 003°44'0 0.0
2017-Apr-18 14:59N 51°05' E 003°44'0 0.0
2017-Apr-18 14:23N 51°05' E 003°44'0 0.0
2017-Apr-18 13:23N 51°05' E 003°44'0 0.0
2017-Apr-18 12:56N 51°05' E 003°44'0 0.0
2017-Apr-18 12:14N 51°05' E 003°44'0 0.0
2017-Apr-18 11:56N 51°05' E 003°44'0 0.0
2017-Apr-18 11:20N 51°05' E 003°44'0 0.0
2017-Apr-18 10:59N 51°05' E 003°44'0 0.0
2017-Apr-18 10:29N 51°05' E 003°44'0 0.0
2017-Apr-18 09:56N 51°05' E 003°44'0 0.0
2017-Apr-18 09:29N 51°05' E 003°44'0 0.0
2017-Apr-18 08:53N 51°05' E 003°44'0 0.0
2017-Apr-18 08:29N 51°05' E 003°44'0 0.0
2017-Apr-18 07:59N 51°05' E 003°44'0 0.0
2017-Apr-18 07:23N 51°05' E 003°44'0 0.0
2017-Apr-18 06:59N 51°05' E 003°44'0 0.0
2017-Apr-18 06:22N 51°05' E 003°44'0 0.0
2017-Apr-18 05:58N 51°05' E 003°44'0 0.0
2017-Apr-18 05:22N 51°05' E 003°44'0 0.0
2017-Apr-18 04:58N 51°05' E 003°44'0 0.0
2017-Apr-18 04:22N 51°05' E 003°44'0 0.0
2017-Apr-18 03:58N 51°05' E 003°44'0 0.0
2017-Apr-18 03:22N 51°05' E 003°44'0 0.0
2017-Apr-18 02:58N 51°05' E 003°44'0 0.0
2017-Apr-18 02:31N 51°05' E 003°44'0 0.0
2017-Apr-18 01:55N 51°05' E 003°44'0 0.0
2017-Apr-18 01:24N 51°05' E 003°44'0 0.0
2017-Apr-18 00:55N 51°05' E 003°44'0 0.0
2017-Apr-18 00:25N 51°05' E 003°44'0 0.0
2017-Apr-18 00:00N 51°05' E 003°44'0 0.0
2017-Apr-17 23:24N 51°05' E 003°44'0 0.0
2017-Apr-17 23:00N 51°05' E 003°44'0 0.0
2017-Apr-17 22:24N 51°05' E 003°44'0 0.0
2017-Apr-17 22:00N 51°05' E 003°44'0 0.0
2017-Apr-17 21:30N 51°05' E 003°44'0 0.0
2017-Apr-17 20:54N 51°05' E 003°44'0 0.0
2017-Apr-17 20:30N 51°05' E 003°44'0 0.0
2017-Apr-17 19:57N 51°05' E 003°44'0 0.0
2017-Apr-17 19:22N 51°05' E 003°44'0 0.0
2017-Apr-17 18:57N 51°05' E 003°44'0 0.0
2017-Apr-17 18:30N 51°05' E 003°44'0 0.0
2017-Apr-17 18:00N 51°05' E 003°44'0 0.0
2017-Apr-17 17:27N 51°05' E 003°44'1 1.3
2017-Apr-17 17:01N 51°06' E 003°44'4 7.8
2017-Apr-17 16:31N 51°09' E 003°47'4 8.2
2017-Apr-17 16:00N 51°13' E 003°48'4 8.2
2017-Apr-17 15:31N 51°17' E 003°50'3 5.6
2017-Apr-17 15:00N 51°20' E 003°49'3 3.1
2017-Apr-17 14:00N 51°22' E 003°45'4 7.6
2017-Apr-17 13:30N 51°25' E 003°41'4 7.9
2017-Apr-17 13:00N 51°26' E 003°35'4 7.1
2017-Apr-17 12:30N 51°28' E 003°31'4 8.9
2017-Apr-17 12:00N 51°31' E 003°25'510.4
2017-Apr-17 11:29N 51°36' E 003°22'5 9.8
2017-Apr-17 11:00N 51°40' E 003°17'5 8.9
2017-Apr-17 10:29N 51°44' E 003°14'4 3.3
2017-Apr-17 09:08N 51°48' E 003°09'0 2.7
2017-Apr-17 08:59N 51°47' E 003°10'2 3.6
2017-Apr-17 08:29N 51°47' E 003°13'2 2.7
2017-Apr-17 07:54N 51°49' E 003°14'45 7.0
2017-Apr-17 01:30N 52°33' E 003°29'4 8.8
2017-Apr-17 00:59N 52°37' E 003°31'4 9.2
2017-Apr-17 00:30N 52°40' E 003°36'5 9.3
2017-Apr-17 00:00N 52°44' E 003°41'5 9.1
2017-Apr-16 23:29N 52°47' E 003°47'4 8.6
2017-Apr-16 22:59N 52°51' E 003°51'4 8.3
2017-Apr-16 22:30N 52°54' E 003°55'4 8.1
2017-Apr-16 21:59N 52°57' E 004°00'4 7.7
2017-Apr-16 21:30N 52°59' E 004°05'4 7.4
2017-Apr-16 21:00N 53°01' E 004°09'4 7.0
2017-Apr-16 20:30N 53°04' E 004°14'3 6.7
2017-Apr-16 19:59N 53°06' E 004°18'3 6.4
2017-Apr-16 19:30N 53°08' E 004°22'3 6.2
2017-Apr-16 18:59N 53°10' E 004°26'3 6.6
2017-Apr-16 18:30N 53°13' E 004°28'4 6.7
2017-Apr-16 17:53N 53°17' E 004°32'3 7.7
2017-Apr-16 17:29N 53°20' E 004°33'  

Dump ship's entire track history